sensor_id;sensor_type;location;lat;lon;timestamp;P1;durP1;ratioP1;P2;durP2;ratioP2
33076;SDS011;38790;51.964;5.924;2022-08-06T00:02:15;10.75;;;2.35;;
33076;SDS011;38790;51.964;5.924;2022-08-06T00:04:42;9.18;;;2.33;;
33076;SDS011;38790;51.964;5.924;2022-08-06T00:07:08;6.03;;;2.05;;
33076;SDS011;38790;51.964;5.924;2022-08-06T00:09:34;4.68;;;1.42;;
33076;SDS011;38790;51.964;5.924;2022-08-06T00:12:00;9.27;;;2.17;;
33076;SDS011;38790;51.964;5.924;2022-08-06T00:14:27;7.63;;;1.85;;
33076;SDS011;38790;51.964;5.924;2022-08-06T00:16:55;9.20;;;2.10;;
33076;SDS011;38790;51.964;5.924;2022-08-06T00:19:21;9.48;;;1.88;;
33076;SDS011;38790;51.964;5.924;2022-08-06T00:21:48;9.30;;;2.00;;
33076;SDS011;38790;51.964;5.924;2022-08-06T00:24:15;9.90;;;2.05;;
33076;SDS011;38790;51.964;5.924;2022-08-06T00:26:41;5.88;;;1.92;;
33076;SDS011;38790;51.964;5.924;2022-08-06T00:29:07;6.55;;;2.00;;
33076;SDS011;38790;51.964;5.924;2022-08-06T00:31:34;7.57;;;1.65;;
33076;SDS011;38790;51.964;5.924;2022-08-06T00:34:01;7.95;;;1.88;;
33076;SDS011;38790;51.964;5.924;2022-08-06T00:36:29;6.28;;;1.88;;
33076;SDS011;38790;51.964;5.924;2022-08-06T00:38:57;7.57;;;1.63;;
33076;SDS011;38790;51.964;5.924;2022-08-06T00:41:25;7.20;;;1.80;;
33076;SDS011;38790;51.964;5.924;2022-08-06T00:43:51;12.68;;;2.20;;
33076;SDS011;38790;51.964;5.924;2022-08-06T00:46:18;5.97;;;1.73;;
33076;SDS011;38790;51.964;5.924;2022-08-06T00:48:44;7.55;;;1.63;;
33076;SDS011;38790;51.964;5.924;2022-08-06T00:51:10;13.45;;;1.98;;
33076;SDS011;38790;51.964;5.924;2022-08-06T00:53:36;12.68;;;2.13;;
33076;SDS011;38790;51.964;5.924;2022-08-06T00:56:03;13.38;;;1.85;;
33076;SDS011;38790;51.964;5.924;2022-08-06T00:58:29;6.47;;;1.52;;
33076;SDS011;38790;51.964;5.924;2022-08-06T01:00:55;6.88;;;1.90;;
33076;SDS011;38790;51.964;5.924;2022-08-06T01:03:22;6.97;;;1.90;;
33076;SDS011;38790;51.964;5.924;2022-08-06T01:05:48;3.58;;;1.27;;
33076;SDS011;38790;51.964;5.924;2022-08-06T01:08:14;6.18;;;1.90;;
33076;SDS011;38790;51.964;5.924;2022-08-06T01:10:41;8.93;;;2.08;;
33076;SDS011;38790;51.964;5.924;2022-08-06T01:13:08;10.88;;;1.85;;
33076;SDS011;38790;51.964;5.924;2022-08-06T01:15:36;8.23;;;1.60;;
33076;SDS011;38790;51.964;5.924;2022-08-06T01:18:05;13.88;;;1.75;;
33076;SDS011;38790;51.964;5.924;2022-08-06T01:26:42;12.60;;;2.17;;
33076;SDS011;38790;51.964;5.924;2022-08-06T01:29:26;5.30;;;1.52;;
33076;SDS011;38790;51.964;5.924;2022-08-06T01:37:22;9.30;;;1.85;;
33076;SDS011;38790;51.964;5.924;2022-08-06T01:39:55;11.35;;;2.17;;
33076;SDS011;38790;51.964;5.924;2022-08-06T01:42:25;9.30;;;1.90;;
33076;SDS011;38790;51.964;5.924;2022-08-06T01:44:54;7.22;;;1.60;;
33076;SDS011;38790;51.964;5.924;2022-08-06T01:47:26;3.45;;;1.55;;
33076;SDS011;38790;51.964;5.924;2022-08-06T01:49:57;10.90;;;2.30;;
33076;SDS011;38790;51.964;5.924;2022-08-06T01:52:27;7.13;;;1.75;;
33076;SDS011;38790;51.964;5.924;2022-08-06T01:54:59;14.65;;;1.83;;
33076;SDS011;38790;51.964;5.924;2022-08-06T01:57:27;10.07;;;2.10;;
33076;SDS011;38790;51.964;5.924;2022-08-06T01:59:57;14.40;;;2.00;;
33076;SDS011;38790;51.964;5.924;2022-08-06T02:02:24;12.45;;;2.33;;
33076;SDS011;38790;51.964;5.924;2022-08-06T02:04:54;4.68;;;1.52;;
33076;SDS011;38790;51.964;5.924;2022-08-06T02:07:24;6.22;;;1.80;;
33076;SDS011;38790;51.964;5.924;2022-08-06T02:09:54;8.38;;;1.65;;
33076;SDS011;38790;51.964;5.924;2022-08-06T02:12:24;7.78;;;2.13;;
33076;SDS011;38790;51.964;5.924;2022-08-06T02:15:02;10.57;;;1.63;;
33076;SDS011;38790;51.964;5.924;2022-08-06T02:17:38;8.68;;;2.08;;
33076;SDS011;38790;51.964;5.924;2022-08-06T02:20:08;13.32;;;1.60;;
33076;SDS011;38790;51.964;5.924;2022-08-06T02:22:36;8.70;;;2.08;;
33076;SDS011;38790;51.964;5.924;2022-08-06T02:25:05;6.82;;;1.73;;
33076;SDS011;38790;51.964;5.924;2022-08-06T02:27:35;9.10;;;1.80;;
33076;SDS011;38790;51.964;5.924;2022-08-06T02:30:09;10.88;;;1.60;;
33076;SDS011;38790;51.964;5.924;2022-08-06T02:32:36;9.43;;;1.67;;
33076;SDS011;38790;51.964;5.924;2022-08-06T02:35:03;13.98;;;1.63;;
33076;SDS011;38790;51.964;5.924;2022-08-06T02:37:30;10.65;;;2.33;;
33076;SDS011;38790;51.964;5.924;2022-08-06T02:40:22;11.85;;;2.13;;
33076;SDS011;38790;51.964;5.924;2022-08-06T02:42:56;10.35;;;2.03;;
33076;SDS011;38790;51.964;5.924;2022-08-06T02:45:36;8.52;;;2.25;;
33076;SDS011;38790;51.964;5.924;2022-08-06T02:48:17;7.22;;;1.88;;
33076;SDS011;38790;51.964;5.924;2022-08-06T02:50:47;9.63;;;2.70;;
33076;SDS011;38790;51.964;5.924;2022-08-06T02:53:16;6.50;;;1.52;;
33076;SDS011;38790;51.964;5.924;2022-08-06T02:55:48;6.53;;;1.55;;
33076;SDS011;38790;51.964;5.924;2022-08-06T02:58:17;7.88;;;1.90;;
33076;SDS011;38790;51.964;5.924;2022-08-06T03:00:48;6.70;;;1.65;;
33076;SDS011;38790;51.964;5.924;2022-08-06T03:03:19;11.00;;;2.05;;
33076;SDS011;38790;51.964;5.924;2022-08-06T03:05:48;6.50;;;1.85;;
33076;SDS011;38790;51.964;5.924;2022-08-06T03:08:17;9.60;;;2.10;;
33076;SDS011;38790;51.964;5.924;2022-08-06T03:10:47;7.10;;;1.60;;
33076;SDS011;38790;51.964;5.924;2022-08-06T03:13:14;5.55;;;1.73;;
33076;SDS011;38790;51.964;5.924;2022-08-06T03:15:43;9.63;;;1.73;;
33076;SDS011;38790;51.964;5.924;2022-08-06T03:18:11;10.35;;;1.80;;
33076;SDS011;38790;51.964;5.924;2022-08-06T03:20:40;6.18;;;1.60;;
33076;SDS011;38790;51.964;5.924;2022-08-06T03:23:07;5.03;;;1.52;;
33076;SDS011;38790;51.964;5.924;2022-08-06T03:25:35;5.88;;;1.80;;
33076;SDS011;38790;51.964;5.924;2022-08-06T03:28:03;8.05;;;1.60;;
33076;SDS011;38790;51.964;5.924;2022-08-06T03:30:30;8.38;;;2.17;;
33076;SDS011;38790;51.964;5.924;2022-08-06T03:32:57;11.70;;;2.08;;
33076;SDS011;38790;51.964;5.924;2022-08-06T03:35:33;8.80;;;1.85;;
33076;SDS011;38790;51.964;5.924;2022-08-06T03:38:00;7.25;;;2.08;;
33076;SDS011;38790;51.964;5.924;2022-08-06T03:40:28;13.13;;;2.33;;
33076;SDS011;38790;51.964;5.924;2022-08-06T03:42:56;6.30;;;1.80;;
33076;SDS011;38790;51.964;5.924;2022-08-06T03:45:23;8.55;;;2.15;;
33076;SDS011;38790;51.964;5.924;2022-08-06T03:47:54;10.18;;;1.92;;
33076;SDS011;38790;51.964;5.924;2022-08-06T03:50:22;5.65;;;1.85;;
33076;SDS011;38790;51.964;5.924;2022-08-06T03:52:54;8.32;;;1.98;;
33076;SDS011;38790;51.964;5.924;2022-08-06T03:55:26;4.72;;;1.58;;
33076;SDS011;38790;51.964;5.924;2022-08-06T03:57:57;8.55;;;2.28;;
33076;SDS011;38790;51.964;5.924;2022-08-06T04:00:28;6.40;;;1.83;;
33076;SDS011;38790;51.964;5.924;2022-08-06T04:02:58;13.27;;;2.08;;
33076;SDS011;38790;51.964;5.924;2022-08-06T04:05:29;8.73;;;2.22;;
33076;SDS011;38790;51.964;5.924;2022-08-06T04:07:58;4.15;;;1.77;;
33076;SDS011;38790;51.964;5.924;2022-08-06T04:10:28;8.10;;;2.05;;
33076;SDS011;38790;51.964;5.924;2022-08-06T04:12:56;11.40;;;2.45;;
33076;SDS011;38790;51.964;5.924;2022-08-06T04:15:23;5.65;;;1.48;;
33076;SDS011;38790;51.964;5.924;2022-08-06T04:17:50;6.82;;;1.67;;
33076;SDS011;38790;51.964;5.924;2022-08-06T04:20:20;7.45;;;2.20;;
33076;SDS011;38790;51.964;5.924;2022-08-06T04:22:48;5.93;;;1.67;;
33076;SDS011;38790;51.964;5.924;2022-08-06T04:25:14;11.02;;;1.77;;
33076;SDS011;38790;51.964;5.924;2022-08-06T04:27:40;5.47;;;1.88;;
33076;SDS011;38790;51.964;5.924;2022-08-06T04:30:08;12.82;;;2.38;;
33076;SDS011;38790;51.964;5.924;2022-08-06T04:32:35;5.78;;;1.70;;
33076;SDS011;38790;51.964;5.924;2022-08-06T04:35:05;10.77;;;1.80;;
33076;SDS011;38790;51.964;5.924;2022-08-06T04:37:33;10.30;;;2.13;;
33076;SDS011;38790;51.964;5.924;2022-08-06T04:39:59;7.13;;;1.98;;
33076;SDS011;38790;51.964;5.924;2022-08-06T04:42:26;5.45;;;1.60;;
33076;SDS011;38790;51.964;5.924;2022-08-06T04:44:52;9.18;;;2.30;;
33076;SDS011;38790;51.964;5.924;2022-08-06T04:47:19;14.70;;;2.15;;
33076;SDS011;38790;51.964;5.924;2022-08-06T04:49:46;8.38;;;2.10;;
33076;SDS011;38790;51.964;5.924;2022-08-06T04:52:25;3.67;;;1.40;;
33076;SDS011;38790;51.964;5.924;2022-08-06T04:54:52;6.70;;;1.73;;
33076;SDS011;38790;51.964;5.924;2022-08-06T04:57:18;4.68;;;1.77;;
33076;SDS011;38790;51.964;5.924;2022-08-06T04:59:44;12.57;;;2.22;;
33076;SDS011;38790;51.964;5.924;2022-08-06T05:02:11;6.05;;;2.20;;
33076;SDS011;38790;51.964;5.924;2022-08-06T05:04:37;4.22;;;1.70;;
33076;SDS011;38790;51.964;5.924;2022-08-06T05:09:55;6.07;;;2.65;;
33076;SDS011;38790;51.964;5.924;2022-08-06T05:12:27;7.03;;;2.30;;
33076;SDS011;38790;51.964;5.924;2022-08-06T05:15:13;4.10;;;1.70;;
33076;SDS011;38790;51.964;5.924;2022-08-06T05:17:46;4.93;;;1.67;;
33076;SDS011;38790;51.964;5.924;2022-08-06T05:20:17;13.05;;;2.70;;
33076;SDS011;38790;51.964;5.924;2022-08-06T05:22:46;4.90;;;1.55;;
33076;SDS011;38790;51.964;5.924;2022-08-06T05:25:15;8.82;;;1.85;;
33076;SDS011;38790;51.964;5.924;2022-08-06T05:27:41;7.57;;;1.75;;
33076;SDS011;38790;51.964;5.924;2022-08-06T05:30:08;7.47;;;1.88;;
33076;SDS011;38790;51.964;5.924;2022-08-06T05:32:41;5.28;;;1.92;;
33076;SDS011;38790;51.964;5.924;2022-08-06T05:35:12;6.38;;;2.30;;
33076;SDS011;38790;51.964;5.924;2022-08-06T05:37:39;6.40;;;2.00;;
33076;SDS011;38790;51.964;5.924;2022-08-06T05:40:06;9.52;;;2.40;;
33076;SDS011;38790;51.964;5.924;2022-08-06T05:42:33;15.25;;;2.70;;
33076;SDS011;38790;51.964;5.924;2022-08-06T05:44:59;13.48;;;2.70;;
33076;SDS011;38790;51.964;5.924;2022-08-06T05:47:26;4.75;;;1.88;;
33076;SDS011;38790;51.964;5.924;2022-08-06T05:50:02;5.15;;;1.98;;
33076;SDS011;38790;51.964;5.924;2022-08-06T05:55:25;18.67;;;2.70;;
33076;SDS011;38790;51.964;5.924;2022-08-06T05:58:15;10.73;;;2.60;;
33076;SDS011;38790;51.964;5.924;2022-08-06T06:00:45;7.40;;;2.25;;
33076;SDS011;38790;51.964;5.924;2022-08-06T06:03:12;6.45;;;2.10;;
33076;SDS011;38790;51.964;5.924;2022-08-06T06:05:41;10.57;;;2.58;;
33076;SDS011;38790;51.964;5.924;2022-08-06T06:08:08;10.65;;;2.67;;
33076;SDS011;38790;51.964;5.924;2022-08-06T06:10:35;8.38;;;2.05;;
33076;SDS011;38790;51.964;5.924;2022-08-06T06:13:03;8.50;;;2.00;;
33076;SDS011;38790;51.964;5.924;2022-08-06T06:15:31;3.58;;;1.52;;
33076;SDS011;38790;51.964;5.924;2022-08-06T06:21:10;7.00;;;1.52;;
33076;SDS011;38790;51.964;5.924;2022-08-06T06:24:13;7.20;;;1.90;;
33076;SDS011;38790;51.964;5.924;2022-08-06T06:32:52;11.20;;;1.67;;
33076;SDS011;38790;51.964;5.924;2022-08-06T06:40:23;7.07;;;1.10;;
33076;SDS011;38790;51.964;5.924;2022-08-06T06:45:48;11.90;;;1.40;;
33076;SDS011;38790;51.964;5.924;2022-08-06T06:48:37;3.63;;;1.48;;
33076;SDS011;38790;51.964;5.924;2022-08-06T06:51:10;4.43;;;1.38;;
33076;SDS011;38790;51.964;5.924;2022-08-06T06:53:44;5.15;;;1.00;;
33076;SDS011;38790;51.964;5.924;2022-08-06T06:56:14;5.65;;;1.20;;
33076;SDS011;38790;51.964;5.924;2022-08-06T06:58:45;2.60;;;0.70;;
33076;SDS011;38790;51.964;5.924;2022-08-06T07:01:16;7.10;;;1.25;;
33076;SDS011;38790;51.964;5.924;2022-08-06T07:03:43;3.33;;;0.90;;
33076;SDS011;38790;51.964;5.924;2022-08-06T07:06:11;7.57;;;1.65;;
33076;SDS011;38790;51.964;5.924;2022-08-06T07:08:43;8.55;;;1.10;;
33076;SDS011;38790;51.964;5.924;2022-08-06T07:11:19;2.25;;;1.00;;
33076;SDS011;38790;51.964;5.924;2022-08-06T07:13:48;7.65;;;1.23;;
33076;SDS011;38790;51.964;5.924;2022-08-06T07:16:16;8.52;;;1.10;;
33076;SDS011;38790;51.964;5.924;2022-08-06T07:18:47;2.75;;;0.68;;
33076;SDS011;38790;51.964;5.924;2022-08-06T07:21:16;2.70;;;0.70;;
33076;SDS011;38790;51.964;5.924;2022-08-06T07:23:44;2.95;;;0.82;;
33076;SDS011;38790;51.964;5.924;2022-08-06T07:26:12;3.88;;;1.15;;
33076;SDS011;38790;51.964;5.924;2022-08-06T07:28:40;6.75;;;1.90;;
33076;SDS011;38790;51.964;5.924;2022-08-06T07:31:07;4.63;;;1.23;;
33076;SDS011;38790;51.964;5.924;2022-08-06T07:33:36;10.90;;;1.35;;
33076;SDS011;38790;51.964;5.924;2022-08-06T07:36:04;3.53;;;0.80;;
33076;SDS011;38790;51.964;5.924;2022-08-06T07:38:31;3.15;;;1.00;;
33076;SDS011;38790;51.964;5.924;2022-08-06T07:41:01;11.10;;;1.25;;
33076;SDS011;38790;51.964;5.924;2022-08-06T07:46:20;1.33;;;0.63;;
33076;SDS011;38790;51.964;5.924;2022-08-06T07:48:55;5.13;;;1.17;;
33076;SDS011;38790;51.964;5.924;2022-08-06T07:51:26;8.18;;;1.15;;
33076;SDS011;38790;51.964;5.924;2022-08-06T07:53:55;5.97;;;1.15;;
33076;SDS011;38790;51.964;5.924;2022-08-06T07:56:22;1.35;;;0.45;;
33076;SDS011;38790;51.964;5.924;2022-08-06T07:58:50;7.40;;;0.93;;
33076;SDS011;38790;51.964;5.924;2022-08-06T08:01:17;4.28;;;0.98;;
33076;SDS011;38790;51.964;5.924;2022-08-06T08:03:44;2.25;;;0.88;;
33076;SDS011;38790;51.964;5.924;2022-08-06T08:06:30;4.57;;;1.00;;
33076;SDS011;38790;51.964;5.924;2022-08-06T08:08:59;2.55;;;0.68;;
33076;SDS011;38790;51.964;5.924;2022-08-06T08:11:34;2.63;;;0.82;;
33076;SDS011;38790;51.964;5.924;2022-08-06T08:14:07;2.95;;;0.85;;
33076;SDS011;38790;51.964;5.924;2022-08-06T08:16:35;5.68;;;1.02;;
33076;SDS011;38790;51.964;5.924;2022-08-06T08:19:18;3.67;;;1.05;;
33076;SDS011;38790;51.964;5.924;2022-08-06T08:21:49;6.50;;;1.48;;
33076;SDS011;38790;51.964;5.924;2022-08-06T08:24:16;1.83;;;0.55;;
33076;SDS011;38790;51.964;5.924;2022-08-06T08:26:42;4.95;;;0.77;;
33076;SDS011;38790;51.964;5.924;2022-08-06T08:29:08;2.80;;;0.68;;
33076;SDS011;38790;51.964;5.924;2022-08-06T08:31:37;3.95;;;1.10;;
33076;SDS011;38790;51.964;5.924;2022-08-06T08:34:04;2.60;;;1.42;;
33076;SDS011;38790;51.964;5.924;2022-08-06T08:36:31;7.65;;;0.70;;
33076;SDS011;38790;51.964;5.924;2022-08-06T08:38:57;4.25;;;0.85;;
33076;SDS011;38790;51.964;5.924;2022-08-06T08:41:25;2.67;;;0.80;;
33076;SDS011;38790;51.964;5.924;2022-08-06T08:43:59;5.07;;;1.00;;
33076;SDS011;38790;51.964;5.924;2022-08-06T08:46:33;1.67;;;0.47;;
33076;SDS011;38790;51.964;5.924;2022-08-06T08:49:01;2.97;;;1.13;;
33076;SDS011;38790;51.964;5.924;2022-08-06T08:51:28;5.75;;;0.85;;
33076;SDS011;38790;51.964;5.924;2022-08-06T08:53:57;4.28;;;1.35;;
33076;SDS011;38790;51.964;5.924;2022-08-06T08:56:26;1.75;;;0.63;;
33076;SDS011;38790;51.964;5.924;2022-08-06T08:58:53;6.72;;;1.27;;
33076;SDS011;38790;51.964;5.924;2022-08-06T09:01:20;5.47;;;1.33;;
33076;SDS011;38790;51.964;5.924;2022-08-06T09:03:46;3.05;;;0.82;;
33076;SDS011;38790;51.964;5.924;2022-08-06T09:06:13;3.50;;;0.82;;
33076;SDS011;38790;51.964;5.924;2022-08-06T09:08:39;4.07;;;0.70;;
33076;SDS011;38790;51.964;5.924;2022-08-06T09:11:06;1.90;;;0.77;;
33076;SDS011;38790;51.964;5.924;2022-08-06T09:13:32;4.80;;;1.10;;
33076;SDS011;38790;51.964;5.924;2022-08-06T09:15:58;4.38;;;0.90;;
33076;SDS011;38790;51.964;5.924;2022-08-06T09:18:26;1.77;;;0.52;;
33076;SDS011;38790;51.964;5.924;2022-08-06T09:20:52;3.00;;;0.60;;
33076;SDS011;38790;51.964;5.924;2022-08-06T09:23:19;2.63;;;0.50;;
33076;SDS011;38790;51.964;5.924;2022-08-06T09:25:49;2.67;;;0.50;;
33076;SDS011;38790;51.964;5.924;2022-08-06T09:31:15;2.47;;;0.60;;
33076;SDS011;38790;51.964;5.924;2022-08-06T09:36:26;1.80;;;0.80;;
33076;SDS011;38790;51.964;5.924;2022-08-06T09:38:54;4.45;;;0.60;;
33076;SDS011;38790;51.964;5.924;2022-08-06T09:41:23;1.77;;;0.80;;
33076;SDS011;38790;51.964;5.924;2022-08-06T09:43:52;1.15;;;0.50;;
33076;SDS011;38790;51.964;5.924;2022-08-06T09:46:37;2.08;;;0.52;;
33076;SDS011;38790;51.964;5.924;2022-08-06T09:49:13;3.83;;;0.70;;
33076;SDS011;38790;51.964;5.924;2022-08-06T09:51:40;2.17;;;0.73;;
33076;SDS011;38790;51.964;5.924;2022-08-06T09:54:08;1.73;;;0.60;;
33076;SDS011;38790;51.964;5.924;2022-08-06T09:56:36;1.75;;;0.73;;
33076;SDS011;38790;51.964;5.924;2022-08-06T09:59:03;2.72;;;0.60;;
33076;SDS011;38790;51.964;5.924;2022-08-06T10:01:44;1.75;;;0.57;;
33076;SDS011;38790;51.964;5.924;2022-08-06T10:04:22;2.25;;;0.73;;
33076;SDS011;38790;51.964;5.924;2022-08-06T10:06:59;2.47;;;0.52;;
33076;SDS011;38790;51.964;5.924;2022-08-06T10:09:30;2.10;;;0.68;;
33076;SDS011;38790;51.964;5.924;2022-08-06T10:11:58;2.00;;;0.63;;
33076;SDS011;38790;51.964;5.924;2022-08-06T10:14:26;2.50;;;0.80;;
33076;SDS011;38790;51.964;5.924;2022-08-06T10:17:06;2.78;;;0.65;;
33076;SDS011;38790;51.964;5.924;2022-08-06T10:19:32;3.45;;;0.68;;
33076;SDS011;38790;51.964;5.924;2022-08-06T10:22:06;7.15;;;0.90;;
33076;SDS011;38790;51.964;5.924;2022-08-06T10:24:44;4.95;;;0.88;;
33076;SDS011;38790;51.964;5.924;2022-08-06T10:27:12;2.72;;;0.88;;
33076;SDS011;38790;51.964;5.924;2022-08-06T10:29:49;2.03;;;0.50;;
33076;SDS011;38790;51.964;5.924;2022-08-06T10:32:20;2.88;;;0.80;;
33076;SDS011;38790;51.964;5.924;2022-08-06T10:34:51;3.97;;;0.80;;
33076;SDS011;38790;51.964;5.924;2022-08-06T10:37:19;2.95;;;0.82;;
33076;SDS011;38790;51.964;5.924;2022-08-06T10:39:47;2.88;;;0.90;;
33076;SDS011;38790;51.964;5.924;2022-08-06T10:42:17;3.80;;;1.02;;
33076;SDS011;38790;51.964;5.924;2022-08-06T10:44:44;3.05;;;0.63;;
33076;SDS011;38790;51.964;5.924;2022-08-06T10:47:11;3.13;;;0.75;;
33076;SDS011;38790;51.964;5.924;2022-08-06T10:49:38;5.07;;;0.95;;
33076;SDS011;38790;51.964;5.924;2022-08-06T10:52:05;2.83;;;0.57;;
33076;SDS011;38790;51.964;5.924;2022-08-06T10:54:32;4.80;;;0.65;;
33076;SDS011;38790;51.964;5.924;2022-08-06T10:56:58;2.13;;;0.52;;
33076;SDS011;38790;51.964;5.924;2022-08-06T10:59:25;1.88;;;0.73;;
33076;SDS011;38790;51.964;5.924;2022-08-06T11:04:32;2.72;;;0.50;;
33076;SDS011;38790;51.964;5.924;2022-08-06T11:07:09;2.58;;;0.60;;
33076;SDS011;38790;51.964;5.924;2022-08-06T11:09:53;6.00;;;0.60;;
33076;SDS011;38790;51.964;5.924;2022-08-06T11:15:33;3.05;;;0.90;;
33076;SDS011;38790;51.964;5.924;2022-08-06T11:18:07;2.38;;;0.77;;
33076;SDS011;38790;51.964;5.924;2022-08-06T11:20:40;3.78;;;1.02;;
33076;SDS011;38790;51.964;5.924;2022-08-06T11:25:41;4.18;;;0.90;;
33076;SDS011;38790;51.964;5.924;2022-08-06T11:28:09;7.65;;;0.77;;
33076;SDS011;38790;51.964;5.924;2022-08-06T11:30:41;1.80;;;0.57;;
33076;SDS011;38790;51.964;5.924;2022-08-06T11:33:12;1.40;;;0.60;;
33076;SDS011;38790;51.964;5.924;2022-08-06T11:35:40;6.60;;;0.70;;
33076;SDS011;38790;51.964;5.924;2022-08-06T11:38:16;2.45;;;1.05;;
33076;SDS011;38790;51.964;5.924;2022-08-06T11:44:26;1.48;;;0.80;;
33076;SDS011;38790;51.964;5.924;2022-08-06T11:46:36;2.35;;;0.80;;
33076;SDS011;38790;51.964;5.924;2022-08-06T11:59:30;4.13;;;0.70;;
33076;SDS011;38790;51.964;5.924;2022-08-06T12:01:58;4.78;;;0.57;;
33076;SDS011;38790;51.964;5.924;2022-08-06T12:10:12;3.30;;;0.95;;
33076;SDS011;38790;51.964;5.924;2022-08-06T12:12:44;0.90;;;0.60;;
33076;SDS011;38790;51.964;5.924;2022-08-06T12:17:38;5.43;;;1.15;;
33076;SDS011;38790;51.964;5.924;2022-08-06T12:20:42;3.60;;;0.70;;
33076;SDS011;38790;51.964;5.924;2022-08-06T12:23:15;2.00;;;0.60;;
33076;SDS011;38790;51.964;5.924;2022-08-06T12:25:47;2.42;;;0.75;;
33076;SDS011;38790;51.964;5.924;2022-08-06T12:28:15;1.58;;;0.75;;
33076;SDS011;38790;51.964;5.924;2022-08-06T12:30:46;3.97;;;0.95;;
33076;SDS011;38790;51.964;5.924;2022-08-06T12:33:18;3.58;;;0.90;;
33076;SDS011;38790;51.964;5.924;2022-08-06T12:38:22;8.30;;;1.20;;
33076;SDS011;38790;51.964;5.924;2022-08-06T12:40:55;3.83;;;0.68;;
33076;SDS011;38790;51.964;5.924;2022-08-06T12:43:23;4.70;;;0.70;;
33076;SDS011;38790;51.964;5.924;2022-08-06T12:45:55;2.13;;;0.80;;
33076;SDS011;38790;51.964;5.924;2022-08-06T12:48:22;3.50;;;0.82;;
33076;SDS011;38790;51.964;5.924;2022-08-06T12:50:50;4.45;;;0.88;;
33076;SDS011;38790;51.964;5.924;2022-08-06T12:53:30;1.90;;;0.60;;
33076;SDS011;38790;51.964;5.924;2022-08-06T12:55:56;2.15;;;0.60;;
33076;SDS011;38790;51.964;5.924;2022-08-06T13:00:59;2.70;;;0.65;;
33076;SDS011;38790;51.964;5.924;2022-08-06T13:03:27;4.43;;;0.63;;
33076;SDS011;38790;51.964;5.924;2022-08-06T13:05:57;2.33;;;0.93;;
33076;SDS011;38790;51.964;5.924;2022-08-06T13:08:25;2.92;;;0.88;;
33076;SDS011;38790;51.964;5.924;2022-08-06T13:10:53;1.75;;;0.65;;
33076;SDS011;38790;51.964;5.924;2022-08-06T13:13:20;2.08;;;0.63;;
33076;SDS011;38790;51.964;5.924;2022-08-06T13:16:00;2.78;;;0.70;;
33076;SDS011;38790;51.964;5.924;2022-08-06T13:18:29;2.22;;;0.73;;
33076;SDS011;38790;51.964;5.924;2022-08-06T13:20:55;4.47;;;0.70;;
33076;SDS011;38790;51.964;5.924;2022-08-06T13:26:10;1.67;;;0.70;;
33076;SDS011;38790;51.964;5.924;2022-08-06T13:31:32;1.92;;;0.77;;
33076;SDS011;38790;51.964;5.924;2022-08-06T13:34:00;3.33;;;0.85;;
33076;SDS011;38790;51.964;5.924;2022-08-06T13:36:32;1.88;;;0.70;;
33076;SDS011;38790;51.964;5.924;2022-08-06T13:39:21;1.50;;;0.73;;
33076;SDS011;38790;51.964;5.924;2022-08-06T13:42:02;0.68;;;0.50;;
33076;SDS011;38790;51.964;5.924;2022-08-06T13:44:32;4.65;;;0.95;;
33076;SDS011;38790;51.964;5.924;2022-08-06T13:47:06;0.88;;;0.50;;
33076;SDS011;38790;51.964;5.924;2022-08-06T13:49:34;2.78;;;0.70;;
33076;SDS011;38790;51.964;5.924;2022-08-06T13:52:01;2.63;;;0.98;;
33076;SDS011;38790;51.964;5.924;2022-08-06T13:54:28;5.95;;;0.70;;
33076;SDS011;38790;51.964;5.924;2022-08-06T13:56:55;1.77;;;0.65;;
33076;SDS011;38790;51.964;5.924;2022-08-06T13:59:23;1.35;;;0.70;;
33076;SDS011;38790;51.964;5.924;2022-08-06T14:01:51;3.47;;;0.60;;
33076;SDS011;38790;51.964;5.924;2022-08-06T14:04:18;0.77;;;0.40;;
33076;SDS011;38790;51.964;5.924;2022-08-06T14:06:48;2.08;;;0.70;;
33076;SDS011;38790;51.964;5.924;2022-08-06T14:09:16;2.75;;;0.57;;
33076;SDS011;38790;51.964;5.924;2022-08-06T14:11:45;3.25;;;0.70;;
33076;SDS011;38790;51.964;5.924;2022-08-06T14:14:11;0.82;;;0.47;;
33076;SDS011;38790;51.964;5.924;2022-08-06T14:16:37;0.75;;;0.70;;
33076;SDS011;38790;51.964;5.924;2022-08-06T14:19:03;4.05;;;0.70;;
33076;SDS011;38790;51.964;5.924;2022-08-06T14:21:29;2.40;;;0.80;;
33076;SDS011;38790;51.964;5.924;2022-08-06T14:23:55;5.15;;;1.10;;
33076;SDS011;38790;51.964;5.924;2022-08-06T14:26:21;2.03;;;0.68;;
33076;SDS011;38790;51.964;5.924;2022-08-06T14:28:47;2.58;;;0.68;;
33076;SDS011;38790;51.964;5.924;2022-08-06T14:31:14;2.20;;;0.70;;
33076;SDS011;38790;51.964;5.924;2022-08-06T14:33:40;3.50;;;0.85;;
33076;SDS011;38790;51.964;5.924;2022-08-06T14:36:06;2.88;;;0.85;;
33076;SDS011;38790;51.964;5.924;2022-08-06T14:38:32;1.23;;;0.60;;
33076;SDS011;38790;51.964;5.924;2022-08-06T14:41:00;1.30;;;1.00;;
33076;SDS011;38790;51.964;5.924;2022-08-06T14:43:45;2.97;;;0.90;;
33076;SDS011;38790;51.964;5.924;2022-08-06T14:46:30;1.98;;;0.93;;
33076;SDS011;38790;51.964;5.924;2022-08-06T14:48:57;2.78;;;0.70;;
33076;SDS011;38790;51.964;5.924;2022-08-06T14:51:25;2.67;;;0.95;;
33076;SDS011;38790;51.964;5.924;2022-08-06T14:53:51;0.68;;;0.55;;
33076;SDS011;38790;51.964;5.924;2022-08-06T14:56:17;1.83;;;0.88;;
33076;SDS011;38790;51.964;5.924;2022-08-06T14:58:44;2.67;;;0.90;;
33076;SDS011;38790;51.964;5.924;2022-08-06T15:01:10;0.80;;;0.50;;
33076;SDS011;38790;51.964;5.924;2022-08-06T15:03:36;6.25;;;1.58;;
33076;SDS011;38790;51.964;5.924;2022-08-06T15:06:02;3.47;;;0.90;;
33076;SDS011;38790;51.964;5.924;2022-08-06T15:08:28;3.15;;;0.68;;
33076;SDS011;38790;51.964;5.924;2022-08-06T15:10:54;4.90;;;0.90;;
33076;SDS011;38790;51.964;5.924;2022-08-06T15:13:20;4.30;;;0.90;;
33076;SDS011;38790;51.964;5.924;2022-08-06T15:15:46;1.20;;;0.57;;
33076;SDS011;38790;51.964;5.924;2022-08-06T15:18:13;2.67;;;0.90;;
33076;SDS011;38790;51.964;5.924;2022-08-06T15:20:42;13.07;;;0.90;;
33076;SDS011;38790;51.964;5.924;2022-08-06T15:23:08;2.70;;;0.90;;
33076;SDS011;38790;51.964;5.924;2022-08-06T15:25:34;1.48;;;0.60;;
33076;SDS011;38790;51.964;5.924;2022-08-06T15:28:00;1.08;;;0.80;;
33076;SDS011;38790;51.964;5.924;2022-08-06T15:30:26;2.08;;;0.90;;
33076;SDS011;38790;51.964;5.924;2022-08-06T15:32:53;1.25;;;0.68;;
33076;SDS011;38790;51.964;5.924;2022-08-06T15:35:19;1.75;;;0.90;;
33076;SDS011;38790;51.964;5.924;2022-08-06T15:37:46;2.90;;;1.20;;
33076;SDS011;38790;51.964;5.924;2022-08-06T15:40:14;1.73;;;1.00;;
33076;SDS011;38790;51.964;5.924;2022-08-06T15:42:40;9.38;;;1.48;;
33076;SDS011;38790;51.964;5.924;2022-08-06T15:45:06;3.67;;;1.23;;
33076;SDS011;38790;51.964;5.924;2022-08-06T15:47:33;2.03;;;0.70;;
33076;SDS011;38790;51.964;5.924;2022-08-06T15:49:59;2.88;;;1.20;;
33076;SDS011;38790;51.964;5.924;2022-08-06T15:52:26;8.98;;;1.40;;
33076;SDS011;38790;51.964;5.924;2022-08-06T15:54:52;2.10;;;1.10;;
33076;SDS011;38790;51.964;5.924;2022-08-06T15:57:18;1.92;;;0.88;;
33076;SDS011;38790;51.964;5.924;2022-08-06T15:59:47;3.03;;;1.00;;
33076;SDS011;38790;51.964;5.924;2022-08-06T16:02:14;5.93;;;1.25;;
33076;SDS011;38790;51.964;5.924;2022-08-06T16:04:40;3.72;;;1.90;;
33076;SDS011;38790;51.964;5.924;2022-08-06T16:07:06;2.20;;;1.30;;
33076;SDS011;38790;51.964;5.924;2022-08-06T16:09:36;3.53;;;1.50;;
33076;SDS011;38790;51.964;5.924;2022-08-06T16:12:03;2.35;;;1.08;;
33076;SDS011;38790;51.964;5.924;2022-08-06T16:14:31;2.08;;;1.35;;
33076;SDS011;38790;51.964;5.924;2022-08-06T16:16:57;1.35;;;0.95;;
33076;SDS011;38790;51.964;5.924;2022-08-06T16:19:23;1.27;;;0.90;;
33076;SDS011;38790;51.964;5.924;2022-08-06T16:21:49;2.67;;;1.17;;
33076;SDS011;38790;51.964;5.924;2022-08-06T16:24:16;1.83;;;1.17;;